Terminal Aerodrome Forecast
Issued by NWS Wakefield, VA

Home | Current Version | Previous Version | Text Only | Print | Product List | Glossary On
Versions: 1 2 3 4 5 6 7 8 9 10 11 12 13 14 15
956
FTUS41 KAKQ 191120
TAFRIC
TAF
KRIC 191120Z 1912/2012 32009KT P6SM BKN120
     FM191400 30013G20KT P6SM SCT150
     FM192000 31018G29KT P6SM FEW120
     FM192300 32012G19KT P6SM SKC
     FM200200 32008KT P6SM SKC=

USA.gov is the U.S. government's official web portal to all federal, state and local government web resources and services.